Time;durP1;ratioP1;P1;durP2;ratioP2;P2;SDS_P1;SDS_P2;PMS_P1;PMS_P2;Temp;Humidity;BMP_temperature;BMP_pressure;BME280_temperature;BME280_humidity;BME280_pressure;Samples;Min_cycle;Max_cycle;Signal;HPM_P1;HPM_P2
2022/11/10 00:00:09;;;;;;;20.05;15.05;;;;;;;6.16;100.00;100428.44;1780575;78;21266;-63
2022/11/10 00:02:55;;;;;;;22.77;16.52;;;;;;;6.16;100.00;100434.08;1762819;78;21418;-62
2022/11/10 00:05:40;;;;;;;20.48;15.08;;;;;;;6.12;100.00;100420.22;1758279;80;21541;-63
2022/11/10 00:08:26;;;;;;;21.50;15.25;;;;;;;6.13;100.00;100424.55;1776792;78;21816;-65
2022/11/10 00:11:11;;;;;;;19.00;14.78;;;;;;;6.15;100.00;100416.70;1779533;78;21565;-63
2022/11/10 00:17:05;;;;;;;21.68;15.10;;;;;;;6.12;100.00;100416.30;1784965;78;20928;-64
2022/11/10 00:19:50;;;;;;;19.17;15.05;;;;;;;6.10;100.00;100418.48;1768173;78;21532;-63
2022/11/10 00:22:37;;;;;;;22.35;15.05;;;;;;;6.10;100.00;100414.13;1775901;78;21756;-64
2022/11/10 00:25:23;;;;;;;19.02;13.88;;;;;;;6.13;100.00;100418.47;1773289;78;21550;-64
2022/11/10 00:28:08;;;;;;;20.95;14.87;;;;;;;6.12;100.00;100415.00;1767934;78;21451;-64
2022/11/10 00:30:53;;;;;;;19.57;14.20;;;;;;;6.10;100.00;100416.73;1770906;78;21580;-64
2022/11/10 00:33:42;;;;;;;21.42;14.73;;;;;;;6.09;100.00;100415.03;1784796;78;21534;-64
2022/11/10 00:36:28;;;;;;;19.10;14.73;;;;;;;6.03;100.00;100406.83;1780459;79;21798;-64
2022/11/10 00:39:14;;;;;;;20.40;15.15;;;;;;;6.03;100.00;100412.50;1772429;79;21454;-65
2022/11/10 00:42:00;;;;;;;19.55;14.80;;;;;;;6.03;100.00;100407.27;1770676;78;20994;-65
2022/11/10 00:44:45;;;;;;;21.05;14.10;;;;;;;6.00;100.00;100408.16;1771320;79;21393;-64
2022/11/10 00:47:32;;;;;;;19.98;13.98;;;;;;;5.99;100.00;100400.34;1775205;79;21457;-65
2022/11/10 00:50:17;;;;;;;19.92;14.38;;;;;;;5.94;100.00;100402.98;1773867;78;21407;-63
2022/11/10 00:55:44;;;;;;;23.65;14.90;;;;;;;5.94;100.00;100395.16;1862187;76;22770;-63
2022/11/10 00:58:30;;;;;;;18.75;15.13;;;;;;;5.86;100.00;100397.00;1830006;77;21028;-65
2022/11/10 01:01:16;;;;;;;18.70;13.80;;;;;;;5.81;100.00;100397.03;1831419;77;21908;-64
2022/11/10 01:04:02;;;;;;;19.60;13.58;;;;;;;5.81;100.00;100398.79;1840237;77;21525;-64
2022/11/10 01:06:50;;;;;;;18.95;14.18;;;;;;;5.79;100.00;100392.72;1827320;77;21572;-63
2022/11/10 01:09:36;;;;;;;17.77;14.13;;;;;;;5.78;100.00;100387.95;1834830;77;21470;-63
2022/11/10 01:12:21;;;;;;;17.07;13.75;;;;;;;5.77;100.00;100394.04;1830301;77;21024;-64
2022/11/10 01:15:07;;;;;;;17.57;14.20;;;;;;;5.78;100.00;100382.73;1832449;77;21450;-64
2022/11/10 01:17:54;;;;;;;16.05;13.40;;;;;;;5.76;100.00;100380.55;1829668;77;21465;-64
2022/11/10 01:20:39;;;;;;;16.90;13.58;;;;;;;5.75;100.00;100378.84;1830010;77;21532;-63
2022/11/10 01:23:24;;;;;;;17.57;12.68;;;;;;;5.69;100.00;100372.81;1833458;77;21048;-64
2022/11/10 01:26:10;;;;;;;17.57;13.75;;;;;;;5.66;100.00;100369.36;1836317;77;21599;-64
2022/11/10 01:28:56;;;;;;;20.57;13.30;;;;;;;5.65;100.00;100365.05;1833389;77;21774;-63
2022/11/10 01:31:41;;;;;;;17.73;12.95;;;;;;;5.68;100.00;100369.34;1832817;77;20969;-64
2022/11/10 01:34:26;;;;;;;22.10;14.38;;;;;;;5.69;100.00;100361.08;1828348;77;21162;-64
2022/11/10 01:37:12;;;;;;;19.50;13.10;;;;;;;5.68;100.00;100371.10;1840636;77;21574;-66
2022/11/10 01:39:57;;;;;;;15.83;12.68;;;;;;;5.64;100.00;100369.82;1822182;77;21687;-63
2022/11/10 01:42:54;;;;;;;18.23;13.00;;;;;;;5.61;100.00;100372.91;1833075;77;22852;-65
2022/11/10 01:45:44;;;;;;;16.07;12.37;;;;;;;5.60;100.00;100372.05;1828185;77;21525;-64
2022/11/10 01:48:35;;;;;;;18.20;13.50;;;;;;;5.60;100.00;100372.49;1799107;78;21562;-64
2022/11/10 01:51:55;;;;;;;14.75;11.78;;;;;;;5.61;100.00;100382.03;1802363;78;21511;-63
2022/11/10 01:54:45;;;;;;;17.55;12.58;;;;;;;5.57;100.00;100382.95;1770206;79;21099;-63
2022/11/10 01:57:30;;;;;;;20.90;13.20;;;;;;;5.55;100.00;100383.41;1795713;78;22102;-63
2022/11/10 02:00:18;;;;;;;16.95;12.47;;;;;;;5.56;100.00;100383.40;1798330;78;20938;-63
2022/11/10 02:03:26;;;;;;;18.90;13.38;;;;;;;5.59;100.00;100383.80;1799241;78;21057;-63
2022/11/10 02:06:11;;;;;;;15.98;13.05;;;;;;;5.57;100.00;100384.25;1804334;78;21620;-64
2022/11/10 02:08:59;;;;;;;17.35;11.95;;;;;;;5.59;100.00;100381.19;1756808;80;21426;-63
2022/11/10 02:11:46;;;;;;;15.85;12.37;;;;;;;5.61;100.00;100382.03;1793725;78;20930;-64
2022/11/10 02:14:31;;;;;;;16.30;12.13;;;;;;;5.61;100.00;100381.62;1793777;78;21547;-65
2022/11/10 02:17:17;;;;;;;15.00;12.20;;;;;;;5.61;100.00;100379.01;1795931;78;21562;-64
2022/11/10 02:20:09;;;;;;;20.05;12.93;;;;;;;5.61;100.00;100382.03;1798422;78;21509;-63
2022/11/10 02:22:56;;;;;;;17.07;12.10;;;;;;;5.62;100.00;100382.47;1787935;78;21430;-64
2022/11/10 02:25:42;;;;;;;15.05;11.68;;;;;;;5.60;100.00;100384.23;1787789;78;21911;-63
2022/11/10 02:28:34;;;;;;;14.95;11.78;;;;;;;5.59;100.00;100383.80;1755471;80;21080;-63
2022/11/10 02:31:19;;;;;;;15.40;12.45;;;;;;;5.58;100.00;100382.09;1746820;79;21541;-64
2022/11/10 02:34:04;;;;;;;18.90;12.43;;;;;;;5.59;100.00;100391.17;1781326;79;21552;-63
2022/11/10 02:36:49;;;;;;;16.60;12.35;;;;;;;5.82;100.00;100387.03;1778939;79;21056;-64
2022/11/10 02:39:35;;;;;;;16.82;12.10;;;;;;;5.88;100.00;100380.88;1760888;79;22131;-64
2022/11/10 02:42:20;;;;;;;15.72;12.03;;;;;;;5.83;100.00;100382.22;1765852;79;21033;-63
2022/11/10 02:45:07;;;;;;;19.00;12.70;;;;;;;5.83;100.00;100387.89;1766737;79;21045;-63
2022/11/10 02:47:53;;;;;;;17.87;12.37;;;;;;;5.85;100.00;100387.42;1775231;79;20954;-63
2022/11/10 02:50:40;;;;;;;19.63;12.00;;;;;;;5.89;100.00;100392.17;1764800;79;21489;-64
2022/11/10 02:53:26;;;;;;;16.27;12.33;;;;;;;5.95;100.00;100390.78;1775549;79;21418;-63
2022/11/10 02:56:11;;;;;;;23.35;14.55;;;;;;;6.03;100.00;100388.55;1762929;79;21498;-64
2022/11/10 02:58:56;;;;;;;24.10;15.95;;;;;;;6.10;100.00;100384.09;1770374;79;21537;-63
2022/11/10 03:01:41;;;;;;;22.95;14.83;;;;;;;6.17;100.00;100383.14;1770589;79;21521;-63
2022/11/10 03:04:27;;;;;;;17.92;12.98;;;;;;;6.22;100.00;100380.03;1759461;79;21546;-63
2022/11/10 03:07:12;;;;;;;18.42;12.60;;;;;;;6.27;100.00;100380.41;1762249;79;21849;-64
2022/11/10 03:09:57;;;;;;;14.65;12.65;;;;;;;6.31;100.00;100375.15;1767787;79;21635;-64
2022/11/10 03:12:42;;;;;;;18.60;12.70;;;;;;;6.36;100.00;100378.98;1774350;79;21470;-64
2022/11/10 03:15:28;;;;;;;17.52;12.10;;;;;;;6.44;100.00;100374.50;1775902;79;21533;-64
2022/11/10 03:18:13;;;;;;;18.00;12.50;;;;;;;6.50;100.00;100371.83;1765476;79;21549;-65
2022/11/10 03:20:58;;;;;;;16.62;13.00;;;;;;;6.56;100.00;100370.42;1768224;79;22073;-65
2022/11/10 03:23:44;;;;;;;16.65;12.00;;;;;;;6.64;100.00;100369.00;1762356;79;21075;-64
2022/11/10 03:26:29;;;;;;;17.23;12.13;;;;;;;6.68;100.00;100365.91;1768854;79;21560;-65
2022/11/10 03:29:14;;;;;;;17.82;12.53;;;;;;;6.72;100.00;100368.88;1761369;79;21508;-65
2022/11/10 03:31:59;;;;;;;14.90;11.88;;;;;;;6.75;100.00;100368.39;1771440;79;21553;-65
2022/11/10 03:34:44;;;;;;;15.90;12.90;;;;;;;6.77;100.00;100365.77;1767859;79;21887;-65
2022/11/10 03:37:30;;;;;;;16.57;12.68;;;;;;;6.84;100.00;100363.48;1764552;79;21561;-65
2022/11/10 03:40:15;;;;;;;17.12;12.63;;;;;;;6.90;100.00;100360.75;1771472;79;21517;-65
2022/11/10 03:43:01;;;;;;;13.68;10.82;;;;;;;6.88;100.00;100363.84;1775487;79;21495;-65
2022/11/10 03:45:46;;;;;;;17.10;12.13;;;;;;;6.92;100.00;100361.59;1774852;79;21593;-66
2022/11/10 03:48:31;;;;;;;16.75;12.18;;;;;;;6.97;100.00;100364.15;1774084;79;21884;-65
2022/11/10 03:51:16;;;;;;;17.35;12.37;;;;;;;6.99;100.00;100351.91;1777721;79;20990;-65
2022/11/10 03:54:02;;;;;;;18.35;12.65;;;;;;;7.02;100.00;100351.38;1777402;79;21529;-65
2022/11/10 03:56:47;;;;;;;17.87;12.28;;;;;;;7.05;100.00;100347.88;1774318;79;21548;-65
2022/11/10 03:59:32;;;;;;;15.98;12.73;;;;;;;7.04;100.00;100344.83;1772733;79;21565;-65
2022/11/10 04:02:17;;;;;;;18.23;13.40;;;;;;;7.07;100.00;100345.24;1766987;79;21770;-65
2022/11/10 04:17:30;;;;;;;18.55;13.32;;;;;;;7.06;100.00;100340.43;1773596;79;21545;-66
2022/11/10 04:20:16;;;;;;;22.52;13.15;;;;;;;7.07;100.00;100347.41;1760204;79;21030;-65
2022/11/10 04:26:29;;;;;;;22.73;14.07;;;;;;;7.05;100.00;100345.27;1766147;79;20958;-65
2022/11/10 04:29:17;;;;;;;19.73;13.45;;;;;;;7.06;100.00;100345.66;1762367;79;21108;-65
2022/11/10 04:32:03;;;;;;;20.20;13.85;;;;;;;7.07;100.00;100347.85;1769621;79;22520;-65
2022/11/10 04:34:48;;;;;;;15.32;12.28;;;;;;;7.11;100.00;100342.53;1763825;79;21045;-65
2022/11/10 04:37:33;;;;;;;15.30;11.65;;;;;;;7.12;100.00;100352.54;1770735;79;21525;-65
2022/11/10 04:40:20;;;;;;;17.90;12.73;;;;;;;7.13;100.00;100359.51;1771919;79;21439;-65
2022/11/10 04:43:05;;;;;;;16.75;12.15;;;;;;;7.11;100.00;100358.67;1763237;79;20958;-65
2022/11/10 04:45:50;;;;;;;14.98;11.48;;;;;;;7.12;100.00;100359.08;1766444;79;21898;-65
2022/11/10 04:48:37;;;;;;;15.38;11.88;;;;;;;7.12;100.00;100355.16;1772015;79;21426;-65
2022/11/10 04:51:32;;;;;;;15.38;11.63;;;;;;;7.16;100.00;100356.40;1766889;79;20995;-65
2022/11/10 04:54:17;;;;;;;19.90;12.23;;;;;;;7.19;100.00;100351.09;1765743;79;21588;-66
2022/11/10 04:57:02;;;;;;;14.20;11.57;;;;;;;7.20;100.00;100361.13;1762187;79;21474;-65
2022/11/10 04:59:47;;;;;;;19.20;12.30;;;;;;;7.21;100.00;100356.30;1779640;79;22100;-65
2022/11/10 05:02:33;;;;;;;15.95;12.20;;;;;;;7.21;100.00;100357.19;1776660;79;21558;-65
2022/11/10 05:05:18;;;;;;;17.95;11.80;;;;;;;7.25;100.00;100364.97;1776150;79;21581;-65
2022/11/10 05:08:04;;;;;;;15.08;11.15;;;;;;;7.23;100.00;100360.20;1761203;79;21435;-65
2022/11/10 05:10:49;;;;;;;15.83;11.90;;;;;;;7.19;100.00;100356.33;1778935;79;21614;-65
2022/11/10 05:13:34;;;;;;;14.43;11.75;;;;;;;7.15;100.00;100362.50;1771334;79;21545;-65
2022/11/10 05:16:20;;;;;;;14.35;10.82;;;;;;;7.15;100.00;100370.34;1766502;79;21580;-65
2022/11/10 05:19:07;;;;;;;11.90;10.40;;;;;;;7.18;100.00;100372.92;1772918;79;21037;-66
2022/11/10 05:21:53;;;;;;;13.93;11.60;;;;;;;7.14;100.00;100378.22;1772112;79;21477;-65
2022/11/10 05:24:39;;;;;;;16.57;12.05;;;;;;;7.14;100.00;100389.98;1760004;79;21521;-65
2022/11/10 05:27:25;;;;;;;15.23;11.38;;;;;;;7.14;100.00;100396.52;1771523;79;21851;-65
2022/11/10 05:30:11;;;;;;;17.75;13.32;;;;;;;7.13;100.00;100398.73;1762419;79;21494;-65
2022/11/10 05:32:56;;;;;;;17.20;11.85;;;;;;;7.12;100.00;100404.42;1770198;79;21435;-65
2022/11/10 05:35:41;;;;;;;12.93;11.20;;;;;;;7.14;100.00;100409.59;1775302;79;21541;-65
2022/11/10 05:38:26;;;;;;;14.83;11.93;;;;;;;7.17;100.00;100411.72;1774742;79;21632;-65
2022/11/10 05:41:12;;;;;;;16.02;10.72;;;;;;;7.20;100.00;100406.91;1771807;79;21881;-65
2022/11/10 05:43:58;;;;;;;12.88;11.22;;;;;;;7.22;100.00;100409.05;1777880;79;21517;-65
2022/11/10 05:46:44;;;;;;;15.55;10.78;;;;;;;7.24;100.00;100407.72;1774806;79;21585;-60
2022/11/10 05:49:29;;;;;;;13.95;10.93;;;;;;;7.23;100.00;100416.44;1766971;79;21600;-61
2022/11/10 10:19:29;;;;;;;20.45;14.20;;;;;;;7.46;100.00;100487.99;1794552;78;22793;-60
2022/11/10 10:22:35;;;;;;;21.75;13.85;;;;;;;7.84;100.00;100495.20;1763239;80;21482;-58
2022/11/10 10:25:22;;;;;;;19.52;13.30;;;;;;;8.12;100.00;100494.25;1757972;80;21847;-62
2022/11/10 10:28:19;;;;;;;17.82;12.65;;;;;;;8.32;100.00;100489.91;1761531;80;22611;-59
2022/11/10 10:31:20;;;;;;;;;;;;;;;8.48;100.00;100490.51;1766525;80;21578;-59
2022/11/10 10:34:18;;;;;;;17.45;13.48;;;;;;;8.55;100.00;100484.67;1754781;80;20462;-60
2022/11/10 10:37:03;;;;;;;16.90;13.15;;;;;;;8.66;100.00;100489.70;1761391;79;21449;-59
2022/11/10 10:39:50;;;;;;;16.37;11.85;;;;;;;8.75;100.00;100486.42;1773833;80;21918;-58
2022/11/10 10:42:37;;;;;;;20.52;13.22;;;;;;;8.82;100.00;100491.10;1770288;78;21292;-61
2022/11/10 10:45:31;;;;;;;21.80;12.98;;;;;;;8.92;100.00;100481.27;1761149;80;21418;-60
2022/11/10 10:48:26;;;;;;;17.62;12.35;;;;;;;8.99;100.00;100484.63;1760640;80;21422;-59
2022/11/10 10:51:28;;;;;;;16.45;11.75;;;;;;;9.00;100.00;100478.00;1760282;79;21548;-60
2022/11/10 10:54:29;;;;;;;18.73;12.05;;;;;;;9.00;100.00;100477.15;1769711;80;21430;-60
2022/11/10 10:57:31;;;;;;;19.23;13.90;;;;;;;9.03;100.00;100476.63;1765766;80;21596;-60
2022/11/10 11:00:22;;;;;;;20.88;14.83;;;;;;;8.99;100.00;100471.05;1768023;80;21640;-60
2022/11/10 11:03:42;;;;;;;14.58;11.95;;;;;;;8.98;100.00;100475.02;1772750;80;21533;-61
2022/11/10 11:06:32;;;;;;;16.05;11.97;;;;;;;8.99;100.00;100476.75;1758168;80;21565;-60
2022/11/10 11:09:24;;;;;;;14.95;11.80;;;;;;;8.98;100.00;100477.64;1765277;80;21765;-59
2022/11/10 11:12:17;;;;;;;15.65;12.75;;;;;;;8.98;100.00;100488.13;1769668;80;21635;-59
2022/11/10 11:15:25;;;;;;;14.53;12.20;;;;;;;9.10;100.00;100488.72;1767542;80;21577;-59
2022/11/10 11:18:14;;;;;;;15.53;12.10;;;;;;;9.33;100.00;100481.59;1756468;80;21593;-60
2022/11/10 11:21:20;;;;;;;14.68;11.70;;;;;;;9.40;100.00;100475.77;1749668;80;21447;-60
2022/11/10 11:24:20;;;;;;;19.60;13.55;;;;;;;9.40;100.00;100474.45;1754195;80;21813;-58
2022/11/10 11:27:48;;;;;;;16.42;12.13;;;;;;;9.38;100.00;100476.26;1744076;80;21676;-59
2022/11/10 11:31:00;;;;;;;16.62;12.43;;;;;;;9.39;100.00;100483.21;1753879;80;21057;-58
2022/11/10 11:34:19;;;;;;;16.40;12.13;;;;;;;9.35;100.00;100468.45;1759486;80;21553;-59
2022/11/10 11:37:23;;;;;;;20.70;12.60;;;;;;;9.38;100.00;100473.63;1744916;80;21421;-59
2022/11/10 11:40:29;;;;;;;17.98;12.13;;;;;;;9.39;100.00;100477.97;1759493;80;21806;-57
2022/11/10 11:43:32;;;;;;;18.30;12.55;;;;;;;10.37;100.00;100464.00;1750205;80;21495;-58
2022/11/10 11:46:47;;;;;;;17.17;13.00;;;;;;;9.72;100.00;100333.14;1760949;80;21475;-58
2022/11/10 11:49:40;;;;;;;15.18;11.25;;;;;;;10.49;100.00;100451.83;1753551;80;21542;-59
2022/11/10 11:52:35;;;;;;;15.85;10.93;;;;;;;10.46;100.00;100458.48;1755771;80;21642;-58
2022/11/10 11:55:31;;;;;;;18.48;11.38;;;;;;;10.41;100.00;100456.89;1755233;80;21562;-58
2022/11/10 11:58:42;;;;;;;15.97;10.93;;;;;;;10.36;100.00;100459.67;1754483;80;21625;-58
2022/11/10 12:01:44;;;;;;;16.50;11.00;;;;;;;10.32;100.00;100473.35;1764379;80;21042;-58
2022/11/10 12:04:58;;;;;;;13.28;10.38;;;;;;;10.29;100.00;100469.91;1757064;80;21542;-59
2022/11/10 12:08:21;;;;;;;13.22;9.20;;;;;;;10.23;100.00;100464.37;1696607;80;21589;-61
2022/11/10 12:11:15;;;;;;;12.82;9.55;;;;;;;10.26;100.00;100456.38;1764181;80;21960;-60
2022/11/10 12:14:32;;;;;;;12.93;9.93;;;;;;;10.26;100.00;100467.36;1749176;80;21411;-59
2022/11/10 12:17:50;;;;;;;15.20;9.40;;;;;;;10.29;100.00;100456.77;1756263;79;21567;-64
2022/11/10 12:20:56;;;;;;;13.38;9.55;;;;;;;10.26;100.00;100450.27;1754489;80;21487;-59
2022/11/10 12:24:07;;;;;;;14.23;9.88;;;;;;;10.30;100.00;100457.16;1728472;80;21431;-59
2022/11/10 12:27:16;;;;;;;13.55;9.48;;;;;;;10.32;100.00;100465.47;1759737;80;21940;-59
2022/11/10 12:30:07;;;;;;;12.53;9.70;;;;;;;10.33;100.00;100464.55;1755434;80;20975;-59
2022/11/10 12:33:09;;;;;;;14.98;10.55;;;;;;;10.37;100.00;100464.47;1756127;80;21566;-57
2022/11/10 12:35:54;;;;;;;13.28;9.28;;;;;;;10.35;100.00;100459.25;1693245;80;21490;-59
2022/11/10 12:38:55;;;;;;;13.70;10.65;;;;;;;10.35;100.00;100457.93;1747708;80;21485;-58
2022/11/10 12:41:54;;;;;;;15.58;9.73;;;;;;;10.37;100.00;100455.27;1751438;80;21852;-57
2022/11/10 12:44:59;;;;;;;12.73;9.43;;;;;;;10.33;100.00;100464.55;1761660;80;21409;-58
2022/11/10 12:47:45;;;;;;;11.88;9.50;;;;;;;10.33;100.00;100459.28;1716545;80;21597;-59
2022/11/10 12:50:45;;;;;;;13.08;9.45;;;;;;;10.31;100.00;100465.05;1755533;80;21530;-59
2022/11/10 12:53:34;;;;;;;15.68;10.60;;;;;;;10.31;100.00;100470.30;1762147;80;21568;-59
2022/11/10 12:56:33;;;;;;;14.40;10.63;;;;;;;10.28;100.00;100465.11;1751214;80;21813;-60
2022/11/10 12:59:24;;;;;;;14.43;9.90;;;;;;;10.28;100.00;100466.43;1760001;80;21497;-59
2022/11/10 13:02:42;;;;;;;16.05;10.48;;;;;;;10.28;100.00;100463.80;1752749;80;21006;-59
2022/11/10 13:05:35;;;;;;;17.50;11.25;;;;;;;10.32;100.00;100470.72;1741337;80;21603;-60
2022/11/10 13:08:44;;;;;;;15.08;10.93;;;;;;;10.35;100.00;100475.02;1745372;80;20997;-59
2022/11/10 13:11:33;;;;;;;13.98;10.45;;;;;;;10.29;100.00;100480.42;1721400;81;21560;-59
2022/11/10 13:14:24;;;;;;;15.23;11.10;;;;;;;10.27;100.00;100479.61;1728164;81;21537;-58
2022/11/10 13:17:29;;;;;;;16.85;11.53;;;;;;;10.27;100.00;100481.78;1726403;80;21608;-59
2022/11/10 13:20:42;;;;;;;17.32;11.80;;;;;;;10.24;100.00;100479.22;1728125;81;21616;-59
2022/11/10 13:23:45;;;;;;;18.57;11.97;;;;;;;10.29;100.00;100479.11;1725993;81;21694;-59
2022/11/10 13:26:43;;;;;;;16.85;11.93;;;;;;;10.30;100.00;100483.05;1723671;81;21533;-58
2022/11/10 13:29:48;;;;;;;15.32;11.50;;;;;;;10.31;100.00;100473.39;1736529;80;21645;-58
2022/11/10 13:32:34;;;;;;;18.57;11.57;;;;;;;10.27;100.00;100483.09;1727445;81;21423;-59
2022/11/10 13:35:41;;;;;;;16.87;11.57;;;;;;;10.28;100.00;100490.52;1720797;80;21753;-59
2022/11/10 13:38:34;;;;;;;15.30;11.83;;;;;;;10.27;100.00;100498.01;1728246;81;21037;-58
2022/11/10 13:41:22;;;;;;;17.75;11.60;;;;;;;10.21;100.00;100500.36;1727879;81;22118;-58
2022/11/10 13:44:34;;;;;;;;;;;;;;;10.25;100.00;100499.82;1691118;83;21513;-56
2022/11/10 13:47:34;;;;;;;15.20;10.03;;;;;;;10.23;100.00;100493.75;1664853;85;20154;-58
2022/11/10 13:50:40;;;;;;;17.48;11.53;;;;;;;10.21;100.00;100499.47;1681920;83;21539;-58
2022/11/10 13:53:57;;;;;;;18.65;11.60;;;;;;;10.21;100.00;100499.47;1683917;83;21438;-59
2022/11/10 13:57:11;;;;;;;16.67;12.45;;;;;;;10.25;100.00;100494.56;1680096;83;21830;-58
2022/11/10 14:00:00;;;;;;;18.70;13.18;;;;;;;10.23;100.00;100495.06;1661332;83;21555;-60
2022/11/10 14:03:01;;;;;;;19.20;12.63;;;;;;;10.22;100.00;100502.06;1700592;82;21759;-59
2022/11/10 19:10:51;;;;;;;27.60;18.77;;;;;;;7.30;100.00;100569.34;1754676;79;22627;-68
2022/11/10 19:13:37;;;;;;;31.33;20.60;;;;;;;8.01;100.00;100597.04;1719549;82;21612;-65
2022/11/10 19:16:22;;;;;;;25.90;19.23;;;;;;;8.30;100.00;100595.66;1721459;82;21820;-66
2022/11/10 19:19:09;;;;;;;26.10;18.67;;;;;;;8.45;100.00;100582.75;1719325;82;21622;-64
2022/11/10 19:21:55;;;;;;;26.00;19.23;;;;;;;8.54;100.00;100572.09;1727474;81;21501;-64
2022/11/10 19:24:41;;;;;;;24.98;19.05;;;;;;;8.72;100.00;100574.77;1724384;82;21540;-65
2022/11/10 19:27:27;;;;;;;22.63;18.20;;;;;;;8.82;100.00;100568.92;1682780;83;21622;-65
2022/11/10 19:30:13;;;;;;;24.80;19.27;;;;;;;8.92;100.00;100565.19;1683328;84;21912;-64
2022/11/10 19:32:58;;;;;;;24.15;18.67;;;;;;;9.06;100.00;100558.33;1679698;84;21570;-65
2022/11/10 19:35:43;;;;;;;25.77;17.77;;;;;;;9.16;100.00;100561.17;1679030;84;21546;-66
2022/11/10 19:38:28;;;;;;;22.45;18.07;;;;;;;9.24;100.00;100553.13;1678396;84;21586;-66
2022/11/10 19:41:24;;;;;;;24.37;17.00;;;;;;;9.32;100.00;100553.80;1675491;84;21564;-65
2022/11/10 19:44:10;;;;;;;25.52;18.27;;;;;;;9.42;100.00;100548.77;1677454;84;22144;-65
2022/11/10 19:46:55;;;;;;;21.05;16.87;;;;;;;9.43;100.00;100536.50;1680119;83;21021;-65
2022/11/10 19:49:40;;;;;;;29.10;18.02;;;;;;;9.46;100.00;100538.61;1671135;84;21513;-66
2022/11/10 19:52:26;;;;;;;21.00;16.97;;;;;;;9.48;100.00;100533.33;1683873;84;21463;-66
2022/11/10 19:55:12;;;;;;;22.10;17.10;;;;;;;9.50;100.00;100531.52;1686484;84;21533;-65
2022/11/10 19:57:57;;;;;;;24.25;16.85;;;;;;;9.53;100.00;100527.06;1671877;83;21872;-66
2022/11/10 20:00:47;;;;;;;21.23;15.80;;;;;;;9.58;100.00;100528.70;1667161;83;22218;-67
2022/11/10 20:03:32;;;;;;;23.12;17.85;;;;;;;9.60;100.00;100530.84;1674404;84;21633;-66
2022/11/10 20:06:21;;;;;;;23.20;16.37;;;;;;;9.63;100.00;100526.38;1676250;84;21482;-64
2022/11/10 20:09:07;;;;;;;22.60;17.00;;;;;;;9.64;100.00;100528.55;1678122;83;21637;-65
2022/11/10 20:11:52;;;;;;;20.30;16.50;;;;;;;9.67;100.00;100525.86;1661546;85;22334;-65
2022/11/10 20:14:37;;;;;;;20.55;15.90;;;;;;;9.71;100.00;100513.91;1672657;85;21448;-64
2022/11/10 20:17:23;;;;;;;20.55;16.87;;;;;;;9.73;100.00;100523.06;1667108;85;21527;-65
2022/11/10 20:20:09;;;;;;;21.10;15.95;;;;;;;9.68;100.00;100515.32;1667927;85;21554;-64
2022/11/10 20:23:01;;;;;;;22.67;17.17;;;;;;;9.70;100.00;100521.39;1663235;85;21580;-65
2022/11/10 20:25:46;;;;;;;22.95;16.57;;;;;;;9.61;100.00;100529.95;1694395;82;21812;-65
2022/11/10 20:28:34;;;;;;;19.75;16.35;;;;;;;9.60;100.00;100522.51;1691400;83;21580;-66
2022/11/10 20:31:24;;;;;;;22.40;16.60;;;;;;;9.60;100.00;100523.81;1701989;83;21419;-66
2022/11/10 20:34:10;;;;;;;23.10;17.10;;;;;;;9.58;100.00;100523.00;1694948;83;21492;-65
2022/11/10 20:36:55;;;;;;;24.98;16.93;;;;;;;9.60;100.00;100525.13;1708545;83;21502;-65
2022/11/10 20:39:40;;;;;;;23.75;16.75;;;;;;;9.61;100.00;100526.88;1707720;82;21801;-65
2022/11/10 20:42:25;;;;;;;22.70;17.37;;;;;;;9.66;100.00;100529.37;1700016;82;21064;-65
2022/11/10 20:45:11;;;;;;;22.20;16.50;;;;;;;9.66;100.00;100526.74;1699985;82;21001;-65
2022/11/10 20:47:56;;;;;;;23.75;16.73;;;;;;;9.67;100.00;100520.14;1700179;82;21534;-65
2022/11/10 20:50:41;;;;;;;23.12;16.55;;;;;;;9.70;100.00;100528.39;1696812;82;21615;-65
2022/11/10 20:53:28;;;;;;;21.50;17.32;;;;;;;9.71;100.00;100525.73;1663198;84;21828;-65
2022/11/10 20:56:14;;;;;;;23.67;16.30;;;;;;;9.72;100.00;100526.16;1684692;84;21556;-66
2022/11/10 20:58:59;;;;;;;22.98;16.95;;;;;;;9.69;100.00;100528.84;1675945;84;21489;-65
2022/11/10 21:01:44;;;;;;;22.85;17.42;;;;;;;9.68;100.00;100534.12;1675871;84;21587;-65
2022/11/10 21:04:30;;;;;;;22.30;16.65;;;;;;;9.71;100.00;100535.37;1681307;83;20962;-65
2022/11/10 21:07:15;;;;;;;20.32;16.75;;;;;;;9.68;100.00;100537.64;1679593;83;21793;-65
2022/11/10 21:10:00;;;;;;;22.10;17.48;;;;;;;9.68;100.00;100540.70;1676602;84;21459;-65
2022/11/10 21:12:48;;;;;;;22.67;16.93;;;;;;;9.68;100.00;100541.58;1709365;83;21569;-65
2022/11/10 21:15:36;;;;;;;22.37;16.80;;;;;;;9.69;100.00;100539.81;1709526;82;21496;-65
2022/11/10 21:18:21;;;;;;;20.65;17.62;;;;;;;9.64;100.00;100543.84;1687520;82;21440;-66
2022/11/10 21:21:14;;;;;;;25.02;17.95;;;;;;;9.64;100.00;100541.67;1706150;82;21535;-65
2022/11/10 21:24:03;;;;;;;22.98;17.62;;;;;;;9.63;100.00;100542.13;1706585;82;21002;-66
2022/11/10 21:26:50;;;;;;;20.23;16.95;;;;;;;9.65;100.00;100542.95;1706217;82;21499;-66
2022/11/10 21:29:35;;;;;;;23.10;17.37;;;;;;;9.62;100.00;100546.11;1719202;81;21711;-65
2022/11/10 21:32:21;;;;;;;21.87;17.07;;;;;;;9.63;100.00;100547.84;1707410;82;21553;-66
2022/11/10 21:35:08;;;;;;;23.73;16.52;;;;;;;9.63;100.00;100550.02;1718143;82;21575;-65
2022/11/10 21:37:52;;;;;;;20.12;16.97;;;;;;;9.61;100.00;100552.27;1706122;82;21499;-66
2022/11/10 21:40:37;;;;;;;25.23;16.70;;;;;;;9.61;100.00;100554.91;1709720;82;21455;-66
2022/11/10 21:43:22;;;;;;;20.70;16.67;;;;;;;9.63;100.00;100552.64;1710046;82;21573;-66
2022/11/10 21:46:08;;;;;;;22.60;17.52;;;;;;;9.64;100.00;100549.09;1717505;82;20975;-69
2022/11/10 21:48:53;;;;;;;21.15;16.55;;;;;;;9.66;100.00;100554.31;1682488;84;21819;-66
2022/11/10 21:51:39;;;;;;;22.17;17.27;;;;;;;9.67;100.00;100556.05;1668798;84;21601;-66
2022/11/10 21:54:24;;;;;;;25.10;17.25;;;;;;;9.68;100.00;100546.83;1680130;83;21529;-66
2022/11/10 21:57:09;;;;;;;20.77;16.30;;;;;;;9.65;100.00;100549.52;1674611;84;21578;-66
2022/11/10 21:59:54;;;;;;;22.90;16.60;;;;;;;9.63;100.00;100550.02;1680594;84;21680;-66
2022/11/10 22:02:40;;;;;;;21.68;17.07;;;;;;;9.62;100.00;100544.34;1669771;84;21878;-66
2022/11/10 22:05:25;;;;;;;18.75;16.15;;;;;;;9.66;100.00;100542.50;1678241;84;21530;-66
2022/11/10 22:08:11;;;;;;;23.90;17.05;;;;;;;9.67;100.00;100546.41;1670254;84;21594;-65
2022/11/10 22:20:05;;;;;;;20.95;16.75;;;;;;;9.55;100.00;100546.27;1715800;82;21059;-65
2022/11/10 22:22:51;;;;;;;23.27;17.40;;;;;;;9.50;100.00;100546.81;1717915;82;21519;-65
2022/11/10 22:25:37;;;;;;;20.88;16.37;;;;;;;9.49;100.00;100545.11;1720926;82;21558;-65
2022/11/10 22:28:22;;;;;;;23.65;18.07;;;;;;;9.54;100.00;100547.15;1723860;82;21601;-65
2022/11/10 22:31:08;;;;;;;27.93;17.10;;;;;;;9.56;100.00;100552.37;1709472;81;21717;-65
2022/11/10 22:33:53;;;;;;;23.67;17.55;;;;;;;9.56;100.00;100552.37;1717969;82;21487;-65
2022/11/10 22:36:38;;;;;;;21.70;17.32;;;;;;;9.53;100.00;100556.37;1719295;82;21531;-65
2022/11/10 22:44:02;;;;;;;22.00;16.77;;;;;;;9.51;100.00;100556.86;1717983;82;21542;-67
2022/11/10 22:45:15;;;;;;;24.10;16.95;;;;;;;9.49;100.00;100554.30;1723191;82;21681;-65
2022/11/10 22:51:05;;;;;;;23.70;18.07;;;;;;;9.50;100.00;100557.77;1713272;82;21506;-65
2022/11/10 22:53:50;;;;;;;23.57;16.93;;;;;;;9.54;100.00;100560.73;1717004;82;21586;-66
2022/11/10 22:56:36;;;;;;;21.20;17.10;;;;;;;9.51;100.00;100560.80;1721435;82;21538;-65
2022/11/10 22:59:21;;;;;;;26.37;17.07;;;;;;;9.55;100.00;100554.59;1716023;82;21759;-65
2022/11/10 23:02:06;;;;;;;22.80;17.42;;;;;;;9.52;100.00;100558.14;1714259;82;21451;-65